East Hampstead, New Hampshire
Current Conditions -  °F | °C
As of 7:22 AM on Monday 24 Nov 2014 (Local Time) from KLWM Reporting Station
Light Rain Light Rain  
Wind Chill: 54°   Ceiling: 7000
Heat Index: 54°   Visibility: 5mi
Dew Point: 52°   Wind: 10mph
Humidity: 93%   Direction: 140°SE
Pressure: 29.83"   Gusts: 18mph
Location:  42.89°N, 71.14°W
Report Text: KLWM 241222Z 14009G16KT 110V190 5SM -RA BR FEW008 BKN070 OVC090 12/11 A2983 RMK AO2 PRESFR P0005 T01220111
Loading
Personal Weather Stations






























Interactive Weather Map New forecast layout! Learn more

10-Day Weather Forecast

Advertisements
Track Severe Weather on mobile